Weather reports worldwide

Advertisment
Meierwik, Germany (10033): temperature & dewpoint: 12.01.2020 12:00:00 - 18.01.2020 12:00:00 (CET)Meierwik, Germany (10033): wind speed & gusts: 12.01.2020 12:00:00 - 18.01.2020 12:00:00 (CET)Meierwik, Germany (10033): wind direction: 12.01.2020 12:00:00 - 18.01.2020 12:00:00 (CET)Meierwik, Germany (10033): reduced air pressure: 12.01.2020 12:00:00 - 18.01.2020 12:00:00 (CET)
Date & Time tt [°C] td [°C] ff [km/h] ff [kn] fx [km/h] fx [kn] dd ppp [hPa]
18.01.2020 12:00:00 - - - - - - - -
18.01.2020 11:00:00 6,2 4,0 36 19 61 33 WSW 1015,2
18.01.2020 10:00:00 5,8 4,1 32 18 - - WSW 1014,4
18.01.2020 09:00:00 5,4 3,9 40 21 68 37 WSW 1013,9
18.01.2020 08:00:00 5,8 3,4 25 14 54 29 SW 1013,6
18.01.2020 07:00:00 5,9 3,1 36 19 - - WSW 1013,2
18.01.2020 06:00:00 5,8 2,7 47 25 76 41 W 1012,7
18.01.2020 05:00:00 5,9 3,4 43 23 68 37 W 1012,3
18.01.2020 04:00:00 6,1 4,0 47 25 - - W 1011,8
18.01.2020 03:00:00 6,5 4,4 32 18 58 31 SW 1011,2
18.01.2020 02:00:00 - - - - - - - -
18.01.2020 01:00:00 7,5 5,4 29 16 - - WSW 1010,9
18.01.2020 00:00:00 7,5 5,6 29 16 50 27 WSW 1010,8
17.01.2020 23:00:00 8,1 7,0 29 16 54 29 WSW 1010,6
17.01.2020 22:00:00 7,7 7,0 22 12 - - WSW 1010,4
17.01.2020 21:00:00 7,7 6,9 18 10 - - SW 1010,6
17.01.2020 20:00:00 7,6 6,7 18 10 - - SSW 1010,7
17.01.2020 19:00:00 7,7 6,2 18 10 - - SSW 1010,9
17.01.2020 18:00:00 8,6 5,2 18 10 - - SSW 1011,1
17.01.2020 17:00:00 8,6 5,1 18 10 - - SSW 1011,0
17.01.2020 16:00:00 8,9 5,0 18 10 - - SSW 1010,9
17.01.2020 15:00:00 9,2 4,8 18 10 - - SSW 1011,4
17.01.2020 14:00:00 9,6 4,8 18 10 - - SSW 1012,0
17.01.2020 13:00:00 8,8 4,4 22 12 - - S 1012,7
17.01.2020 12:00:00 8,1 4,2 25 14 47 25 S 1013,4
17.01.2020 11:00:00 7,8 4,0 22 12 50 27 SSW 1014,1
17.01.2020 10:00:00 6,7 3,7 32 18 - - S 1013,8
17.01.2020 09:00:00 6,4 3,7 32 18 50 27 S 1014,6
17.01.2020 08:00:00 6,4 3,9 32 18 47 25 S 1014,8
17.01.2020 07:00:00 6,2 3,9 29 16 - - S 1015,3
17.01.2020 06:00:00 6,0 3,9 29 16 - - S 1015,9
17.01.2020 05:00:00 5,7 3,7 25 14 - - S 1016,7
17.01.2020 04:00:00 5,7 3,7 25 14 - - S 1017,4
17.01.2020 03:00:00 5,9 3,9 29 16 - - S 1018,2
17.01.2020 02:00:00 6,1 4,1 32 18 50 27 S 1018,8
17.01.2020 01:00:00 5,8 3,9 29 16 - - S 1019,5
17.01.2020 00:00:00 5,9 3,8 29 16 47 25 S 1019,9
16.01.2020 23:00:00 6,3 3,7 25 14 50 27 S 1020,5
16.01.2020 22:00:00 6,3 3,8 29 16 - - S 1020,9
16.01.2020 21:00:00 5,5 3,6 25 14 - - S 1021,8
16.01.2020 20:00:00 4,9 3,7 22 12 - - S 1022,8
16.01.2020 19:00:00 4,8 3,8 22 12 - - S 1023,3
16.01.2020 18:00:00 5,5 4,3 22 12 - - S 1023,5
16.01.2020 17:00:00 6,3 4,7 18 10 - - S 1023,7
16.01.2020 16:00:00 6,9 5,1 11 6 - - SW 1023,8
16.01.2020 15:00:00 6,6 4,7 14 8 - - SW 1024,1
16.01.2020 14:00:00 6,9 5,0 18 10 - - WSW 1024,1
16.01.2020 13:00:00 6,9 5,1 25 14 - - WSW 1024,3
16.01.2020 12:00:00 6,9 5,2 22 12 - - WSW 1023,8
16.01.2020 11:00:00 6,8 5,1 22 12 - - SW 1023,4
16.01.2020 10:00:00 6,9 5,1 25 14 - - WSW 1022,9
16.01.2020 09:00:00 6,9 5,2 32 18 58 31 WSW 1022,0
16.01.2020 08:00:00 7,0 5,3 32 18 54 29 WSW 1020,9
16.01.2020 07:00:00 6,9 5,4 36 19 - - WSW 1020,1
16.01.2020 06:00:00 6,9 5,4 32 18 58 31 WSW 1019,5
16.01.2020 05:00:00 6,9 5,2 32 18 54 29 WSW 1018,8
16.01.2020 04:00:00 7,2 5,2 36 19 - - WSW 1017,8
16.01.2020 03:00:00 6,7 5,0 29 16 58 31 WSW 1017,3
16.01.2020 02:00:00 6,7 5,0 32 18 58 31 WSW 1016,4
16.01.2020 01:00:00 6,6 4,9 32 18 - - WSW 1015,6
16.01.2020 00:00:00 6,4 4,6 32 18 54 29 WSW 1014,5
15.01.2020 23:00:00 6,1 4,3 29 16 50 27 WSW 1013,3
15.01.2020 22:00:00 6,1 4,0 29 16 - - WSW 1012,3
15.01.2020 21:00:00 6,2 4,3 32 18 47 25 W 1011,2
15.01.2020 20:00:00 6,4 5,1 32 18 50 27 W 1009,7
15.01.2020 19:00:00 7,0 6,0 36 19 - - W 1008,1
15.01.2020 18:00:00 9,4 7,4 40 21 79 43 WSW 1006,0
15.01.2020 17:00:00 9,4 7,4 40 21 65 35 SW 1005,2
15.01.2020 16:00:00 9,7 7,4 40 21 - - SW 1005,0
15.01.2020 15:00:00 10,2 7,2 36 19 76 41 WSW 1004,7
15.01.2020 14:00:00 10,3 7,2 40 21 83 45 SW 1004,4
15.01.2020 13:00:00 11,5 6,3 43 23 - - SW 1004,4
15.01.2020 12:00:00 11,9 6,3 43 23 86 47 SW 1004,1
15.01.2020 11:00:00 12,1 6,3 47 25 79 43 SW 1003,8
15.01.2020 10:00:00 12,2 6,5 47 25 - - SW 1002,9
15.01.2020 09:00:00 12,2 7,0 47 25 83 45 SW 1002,0
15.01.2020 08:00:00 11,8 7,4 47 25 76 41 SW 1001,2
15.01.2020 07:00:00 11,7 8,0 47 25 - - SW 1001,1
15.01.2020 06:00:00 11,4 8,5 50 27 90 49 SW 1000,7
15.01.2020 05:00:00 11,1 8,8 47 25 86 47 WSW 1000,5
15.01.2020 04:00:00 11,3 8,5 50 27 - - SW 1000,0
15.01.2020 03:00:00 11,2 8,7 47 25 90 49 SW 1000,0
15.01.2020 02:00:00 11,1 9,2 43 23 86 47 SW 999,6
15.01.2020 01:00:00 11,4 8,6 47 25 - - SW 999,3
15.01.2020 00:00:00 11,2 8,2 43 23 76 41 SW 999,0
14.01.2020 23:00:00 10,8 7,9 40 21 72 39 SSW 998,4
14.01.2020 22:00:00 9,6 8,1 40 21 - - SSW 998,7
14.01.2020 21:00:00 9,3 7,9 40 21 68 37 SSW 998,5
14.01.2020 20:00:00 8,9 7,8 32 18 61 33 SSW 999,2
14.01.2020 19:00:00 8,8 7,6 29 16 - - SSW 1000,3
14.01.2020 18:00:00 8,5 6,6 25 14 - - S 1001,1
14.01.2020 17:00:00 8,3 5,8 22 12 - - SSW 1001,4
14.01.2020 16:00:00 8,6 5,7 25 14 - - SW 1001,8
14.01.2020 15:00:00 8,4 5,6 32 18 54 29 WSW 1001,8
14.01.2020 14:00:00 8,2 5,8 36 19 58 31 WSW 1001,8
14.01.2020 13:00:00 8,1 5,1 29 16 - - WSW 1001,3
14.01.2020 12:00:00 7,7 5,1 32 18 47 25 WSW 1001,0
14.01.2020 11:00:00 7,7 5,3 29 16 54 29 SW 999,9
14.01.2020 10:00:00 8,5 7,1 40 21 - - WSW 999,4
14.01.2020 09:00:00 8,6 7,4 36 19 72 39 SSW 998,3
14.01.2020 08:00:00 8,2 7,1 36 19 72 39 SSW 998,2
14.01.2020 07:00:00 7,7 6,7 32 18 - - SSW 998,3
14.01.2020 06:00:00 7,0 5,9 40 21 65 35 S 999,0
14.01.2020 05:00:00 6,9 5,4 40 21 61 33 S 999,8
14.01.2020 04:00:00 7,0 4,3 36 19 - - S 1000,9
14.01.2020 03:00:00 6,6 3,9 36 19 54 29 S 1002,3
14.01.2020 02:00:00 6,2 3,7 40 21 61 33 S 1003,6
14.01.2020 01:00:00 5,8 3,3 36 19 - - S 1004,6
14.01.2020 00:00:00 5,8 3,2 36 19 58 31 S 1005,7
13.01.2020 23:00:00 5,4 3,3 32 18 54 29 S 1007,1
13.01.2020 22:00:00 5,1 3,3 25 14 - - S 1008,3
13.01.2020 21:00:00 5,6 3,6 22 12 - - S 1009,6
13.01.2020 20:00:00 5,6 3,9 25 14 - - S 1010,5
13.01.2020 19:00:00 5,6 4,0 22 12 - - S 1011,7
13.01.2020 18:00:00 5,9 4,1 18 10 - - SSW 1012,6
13.01.2020 17:00:00 5,9 3,8 14 8 - - SSW 1013,1
13.01.2020 16:00:00 6,1 4,2 18 10 - - SW 1013,3
13.01.2020 15:00:00 6,3 4,8 18 10 - - SW 1013,7
13.01.2020 14:00:00 6,2 5,0 18 10 - - WSW 1014,5
13.01.2020 13:00:00 5,9 5,0 18 10 - - SW 1015,2
13.01.2020 12:00:00 5,8 4,8 14 8 - - SW 1015,7
13.01.2020 11:00:00 5,3 4,2 14 8 - - SSW 1016,3
13.01.2020 10:00:00 5,5 4,5 18 10 - - SSW 1016,2
13.01.2020 09:00:00 5,7 4,8 18 10 - - WSW 1016,3
13.01.2020 08:00:00 5,4 4,5 14 8 - - WSW 1015,9
13.01.2020 07:00:00 4,8 4,1 25 14 - - SW 1016,2
13.01.2020 06:00:00 4,3 3,5 18 10 - - SW 1016,0
13.01.2020 05:00:00 4,9 4,0 18 10 - - WSW 1016,1
13.01.2020 04:00:00 5,3 4,1 22 12 - - W 1016,1
13.01.2020 03:00:00 6,1 4,9 25 14 - - W 1016,1
13.01.2020 02:00:00 6,8 5,4 29 16 - - W 1015,7
13.01.2020 01:00:00 - - - - - - - -
13.01.2020 00:00:00 6,8 6,1 32 18 - - W 1014,6
12.01.2020 23:00:00 6,9 6,4 25 14 - - W 1013,8
12.01.2020 22:00:00 - - - - - - - -
12.01.2020 21:00:00 7,0 6,5 29 16 - - W 1011,9
12.01.2020 20:00:00 - - - - - - - -
12.01.2020 19:00:00 7,2 6,6 40 21 - - WNW 1010,0
12.01.2020 18:00:00 7,1 6,5 29 16 50 27 WSW 1008,5
12.01.2020 17:00:00 6,1 5,4 25 14 - - SW 1009,2
12.01.2020 16:00:00 5,7 5,0 22 12 - - SW 1010,1
12.01.2020 15:00:00 5,6 4,9 25 14 47 25 SW 1010,8
12.01.2020 14:00:00 5,4 4,7 25 14 50 27 SW 1011,5
12.01.2020 13:00:00 5,5 4,8 29 16 - - WSW 1012,2
12.01.2020 12:00:00 5,7 4,8 29 16 54 29 WSW 1012,9

tt = temperature
td = dewpoint
ff = wind speed
fx = gusts
dd = wind direction
ppp = reduced air pressure

Next stations